sensor_id;sensor_type;location;lat;lon;timestamp;P1;durP1;ratioP1;P2;durP2;ratioP2
30505;SDS011;17292;51.600;4.994;2022-12-18T00:01:03;3.83;;;3.28;;
30505;SDS011;17292;51.600;4.994;2022-12-18T00:03:34;3.45;;;3.15;;
30505;SDS011;17292;51.600;4.994;2022-12-18T00:06:01;3.95;;;3.58;;
30505;SDS011;17292;51.600;4.994;2022-12-18T00:08:27;3.78;;;3.35;;
30505;SDS011;17292;51.600;4.994;2022-12-18T00:10:54;4.22;;;3.83;;
30505;SDS011;17292;51.600;4.994;2022-12-18T00:13:20;3.90;;;3.50;;
30505;SDS011;17292;51.600;4.994;2022-12-18T00:15:47;3.70;;;3.40;;
30505;SDS011;17292;51.600;4.994;2022-12-18T00:18:13;3.80;;;3.15;;
30505;SDS011;17292;51.600;4.994;2022-12-18T00:20:39;5.18;;;4.65;;
30505;SDS011;17292;51.600;4.994;2022-12-18T00:23:06;6.03;;;5.07;;
30505;SDS011;17292;51.600;4.994;2022-12-18T00:25:33;3.88;;;3.58;;
30505;SDS011;17292;51.600;4.994;2022-12-18T00:28:00;5.75;;;5.20;;
30505;SDS011;17292;51.600;4.994;2022-12-18T00:30:26;5.03;;;4.53;;
30505;SDS011;17292;51.600;4.994;2022-12-18T00:32:53;5.88;;;4.60;;
30505;SDS011;17292;51.600;4.994;2022-12-18T00:35:19;5.45;;;4.20;;
30505;SDS011;17292;51.600;4.994;2022-12-18T00:37:45;4.50;;;4.00;;
30505;SDS011;17292;51.600;4.994;2022-12-18T00:40:12;5.15;;;4.32;;
30505;SDS011;17292;51.600;4.994;2022-12-18T00:42:38;3.83;;;3.53;;
30505;SDS011;17292;51.600;4.994;2022-12-18T00:45:26;3.85;;;3.55;;
30505;SDS011;17292;51.600;4.994;2022-12-18T00:47:53;3.70;;;3.38;;
30505;SDS011;17292;51.600;4.994;2022-12-18T00:50:20;4.18;;;3.70;;
30505;SDS011;17292;51.600;4.994;2022-12-18T00:52:46;3.75;;;3.45;;
30505;SDS011;17292;51.600;4.994;2022-12-18T00:55:13;4.28;;;3.88;;
30505;SDS011;17292;51.600;4.994;2022-12-18T00:57:39;3.90;;;3.58;;
30505;SDS011;17292;51.600;4.994;2022-12-18T01:00:06;3.63;;;3.33;;
30505;SDS011;17292;51.600;4.994;2022-12-18T01:02:32;3.95;;;3.65;;
30505;SDS011;17292;51.600;4.994;2022-12-18T01:04:59;4.55;;;3.70;;
30505;SDS011;17292;51.600;4.994;2022-12-18T01:07:25;4.53;;;3.35;;
30505;SDS011;17292;51.600;4.994;2022-12-18T01:09:51;3.67;;;3.38;;
30505;SDS011;17292;51.600;4.994;2022-12-18T01:12:18;4.90;;;3.63;;
30505;SDS011;17292;51.600;4.994;2022-12-18T01:14:44;3.50;;;3.20;;
30505;SDS011;17292;51.600;4.994;2022-12-18T01:17:10;3.50;;;3.22;;
30505;SDS011;17292;51.600;4.994;2022-12-18T01:19:36;3.70;;;3.40;;
30505;SDS011;17292;51.600;4.994;2022-12-18T01:22:03;3.78;;;3.47;;
30505;SDS011;17292;51.600;4.994;2022-12-18T01:24:29;3.70;;;3.40;;
30505;SDS011;17292;51.600;4.994;2022-12-18T01:26:55;3.47;;;3.17;;
30505;SDS011;17292;51.600;4.994;2022-12-18T01:29:22;3.50;;;3.15;;
30505;SDS011;17292;51.600;4.994;2022-12-18T01:31:48;4.20;;;3.80;;
30505;SDS011;17292;51.600;4.994;2022-12-18T01:34:14;4.75;;;3.63;;
30505;SDS011;17292;51.600;4.994;2022-12-18T01:36:41;3.78;;;3.42;;
30505;SDS011;17292;51.600;4.994;2022-12-18T01:39:09;3.35;;;3.10;;
30505;SDS011;17292;51.600;4.994;2022-12-18T01:41:36;3.90;;;3.60;;
30505;SDS011;17292;51.600;4.994;2022-12-18T01:47:06;4.65;;;4.07;;
30505;SDS011;17292;51.600;4.994;2022-12-18T01:49:32;5.88;;;5.00;;
30505;SDS011;17292;51.600;4.994;2022-12-18T01:51:58;4.70;;;4.30;;
30505;SDS011;17292;51.600;4.994;2022-12-18T01:54:24;5.55;;;4.65;;
30505;SDS011;17292;51.600;4.994;2022-12-18T01:56:51;5.15;;;4.20;;
30505;SDS011;17292;51.600;4.994;2022-12-18T01:59:17;5.03;;;4.03;;
30505;SDS011;17292;51.600;4.994;2022-12-18T02:01:43;5.05;;;4.30;;
30505;SDS011;17292;51.600;4.994;2022-12-18T02:04:23;7.38;;;4.35;;
30505;SDS011;17292;51.600;4.994;2022-12-18T02:09:36;5.63;;;4.57;;
30505;SDS011;17292;51.600;4.994;2022-12-18T02:12:20;4.93;;;4.50;;
30505;SDS011;17292;51.600;4.994;2022-12-18T02:22:37;3.75;;;3.45;;
30505;SDS011;17292;51.600;4.994;2022-12-18T02:25:26;3.90;;;3.50;;
30505;SDS011;17292;51.600;4.994;2022-12-18T02:27:54;3.80;;;3.50;;
30505;SDS011;17292;51.600;4.994;2022-12-18T02:30:23;4.03;;;3.72;;
30505;SDS011;17292;51.600;4.994;2022-12-18T02:32:50;3.55;;;3.25;;
30505;SDS011;17292;51.600;4.994;2022-12-18T02:35:21;3.92;;;3.45;;
30505;SDS011;17292;51.600;4.994;2022-12-18T02:37:49;4.18;;;3.78;;
30505;SDS011;17292;51.600;4.994;2022-12-18T02:40:16;3.97;;;3.58;;
30505;SDS011;17292;51.600;4.994;2022-12-18T02:42:43;3.75;;;3.45;;
30505;SDS011;17292;51.600;4.994;2022-12-18T02:45:09;4.32;;;3.55;;
30505;SDS011;17292;51.600;4.994;2022-12-18T02:47:37;3.75;;;3.45;;
30505;SDS011;17292;51.600;4.994;2022-12-18T02:57:42;3.88;;;3.55;;
30505;SDS011;17292;51.600;4.994;2022-12-18T03:00:13;3.58;;;3.28;;
30505;SDS011;17292;51.600;4.994;2022-12-18T03:02:42;3.83;;;3.53;;
30505;SDS011;17292;51.600;4.994;2022-12-18T03:07:48;3.67;;;3.13;;
30505;SDS011;17292;51.600;4.994;2022-12-18T03:10:16;4.20;;;3.80;;
30505;SDS011;17292;51.600;4.994;2022-12-18T03:12:47;4.38;;;3.75;;
30505;SDS011;17292;51.600;4.994;2022-12-18T03:15:23;4.07;;;3.70;;
30505;SDS011;17292;51.600;4.994;2022-12-18T03:17:52;3.95;;;3.55;;
30505;SDS011;17292;51.600;4.994;2022-12-18T03:20:21;4.10;;;3.70;;
30505;SDS011;17292;51.600;4.994;2022-12-18T03:22:49;3.80;;;3.50;;
30505;SDS011;17292;51.600;4.994;2022-12-18T03:25:17;3.88;;;3.55;;
30505;SDS011;17292;51.600;4.994;2022-12-18T03:27:46;4.05;;;3.60;;
30505;SDS011;17292;51.600;4.994;2022-12-18T03:30:14;3.97;;;3.67;;
30505;SDS011;17292;51.600;4.994;2022-12-18T03:32:43;4.32;;;3.40;;
30505;SDS011;17292;51.600;4.994;2022-12-18T03:35:11;4.28;;;3.75;;
30505;SDS011;17292;51.600;4.994;2022-12-18T03:37:38;3.80;;;3.30;;
30505;SDS011;17292;51.600;4.994;2022-12-18T03:40:05;4.70;;;3.65;;
30505;SDS011;17292;51.600;4.994;2022-12-18T03:50:21;3.63;;;3.33;;
30505;SDS011;17292;51.600;4.994;2022-12-18T03:52:54;3.78;;;3.45;;
30505;SDS011;17292;51.600;4.994;2022-12-18T03:55:23;3.80;;;3.50;;
30505;SDS011;17292;51.600;4.994;2022-12-18T03:57:50;4.00;;;3.50;;
30505;SDS011;17292;51.600;4.994;2022-12-18T04:00:18;3.97;;;3.60;;
30505;SDS011;17292;51.600;4.994;2022-12-18T04:02:47;3.60;;;3.30;;
30505;SDS011;17292;51.600;4.994;2022-12-18T04:05:14;3.50;;;3.20;;
30505;SDS011;17292;51.600;4.994;2022-12-18T04:07:41;5.53;;;3.58;;
30505;SDS011;17292;51.600;4.994;2022-12-18T04:10:08;4.47;;;3.60;;
30505;SDS011;17292;51.600;4.994;2022-12-18T04:12:36;3.47;;;3.20;;
30505;SDS011;17292;51.600;4.994;2022-12-18T04:15:03;3.60;;;3.30;;
30505;SDS011;17292;51.600;4.994;2022-12-18T04:17:29;3.50;;;3.20;;
30505;SDS011;17292;51.600;4.994;2022-12-18T04:19:55;3.92;;;3.63;;
30505;SDS011;17292;51.600;4.994;2022-12-18T04:22:22;4.30;;;3.78;;
30505;SDS011;17292;51.600;4.994;2022-12-18T04:24:48;4.97;;;3.40;;
30505;SDS011;17292;51.600;4.994;2022-12-18T04:27:14;4.95;;;3.65;;
30505;SDS011;17292;51.600;4.994;2022-12-18T04:29:40;3.22;;;2.92;;
30505;SDS011;17292;51.600;4.994;2022-12-18T04:32:07;3.55;;;3.22;;
30505;SDS011;17292;51.600;4.994;2022-12-18T04:34:33;5.57;;;4.10;;
30505;SDS011;17292;51.600;4.994;2022-12-18T04:36:59;3.72;;;3.42;;
30505;SDS011;17292;51.600;4.994;2022-12-18T04:39:25;3.78;;;3.10;;
30505;SDS011;17292;51.600;4.994;2022-12-18T04:41:52;3.65;;;3.35;;
30505;SDS011;17292;51.600;4.994;2022-12-18T04:44:18;3.50;;;3.20;;
30505;SDS011;17292;51.600;4.994;2022-12-18T04:46:44;4.15;;;3.72;;
30505;SDS011;17292;51.600;4.994;2022-12-18T04:49:10;3.95;;;3.55;;
30505;SDS011;17292;51.600;4.994;2022-12-18T04:51:37;3.80;;;3.35;;
30505;SDS011;17292;51.600;4.994;2022-12-18T04:54:03;3.70;;;3.40;;
30505;SDS011;17292;51.600;4.994;2022-12-18T04:56:30;4.03;;;3.60;;
30505;SDS011;17292;51.600;4.994;2022-12-18T04:58:56;3.90;;;3.60;;
30505;SDS011;17292;51.600;4.994;2022-12-18T05:01:23;3.85;;;3.55;;
30505;SDS011;17292;51.600;4.994;2022-12-18T05:03:50;3.95;;;3.40;;
30505;SDS011;17292;51.600;4.994;2022-12-18T05:06:16;4.20;;;3.30;;
30505;SDS011;17292;51.600;4.994;2022-12-18T05:08:43;3.58;;;3.28;;
30505;SDS011;17292;51.600;4.994;2022-12-18T05:11:11;3.78;;;3.47;;
30505;SDS011;17292;51.600;4.994;2022-12-18T05:13:40;4.10;;;3.70;;
30505;SDS011;17292;51.600;4.994;2022-12-18T05:16:07;3.83;;;3.47;;
30505;SDS011;17292;51.600;4.994;2022-12-18T05:18:33;3.75;;;3.28;;
30505;SDS011;17292;51.600;4.994;2022-12-18T05:20:59;3.75;;;3.35;;
30505;SDS011;17292;51.600;4.994;2022-12-18T05:23:26;3.70;;;3.40;;
30505;SDS011;17292;51.600;4.994;2022-12-18T05:25:53;4.00;;;3.60;;
30505;SDS011;17292;51.600;4.994;2022-12-18T05:28:20;3.55;;;3.25;;
30505;SDS011;17292;51.600;4.994;2022-12-18T05:30:50;3.97;;;3.65;;
30505;SDS011;17292;51.600;4.994;2022-12-18T05:33:16;3.72;;;3.42;;
30505;SDS011;17292;51.600;4.994;2022-12-18T05:35:43;3.78;;;3.47;;
30505;SDS011;17292;51.600;4.994;2022-12-18T05:38:09;5.13;;;3.30;;
30505;SDS011;17292;51.600;4.994;2022-12-18T05:40:35;4.00;;;3.70;;
30505;SDS011;17292;51.600;4.994;2022-12-18T05:43:04;3.38;;;3.08;;
30505;SDS011;17292;51.600;4.994;2022-12-18T05:45:31;3.80;;;3.50;;
30505;SDS011;17292;51.600;4.994;2022-12-18T05:47:57;3.28;;;3.00;;
30505;SDS011;17292;51.600;4.994;2022-12-18T05:50:23;3.47;;;3.17;;
30505;SDS011;17292;51.600;4.994;2022-12-18T05:52:49;3.50;;;3.20;;
30505;SDS011;17292;51.600;4.994;2022-12-18T05:55:16;3.70;;;3.40;;
30505;SDS011;17292;51.600;4.994;2022-12-18T05:57:42;4.25;;;3.83;;
30505;SDS011;17292;51.600;4.994;2022-12-18T06:00:09;4.40;;;3.60;;
30505;SDS011;17292;51.600;4.994;2022-12-18T06:02:35;4.10;;;3.50;;
30505;SDS011;17292;51.600;4.994;2022-12-18T06:05:01;3.42;;;3.13;;
30505;SDS011;17292;51.600;4.994;2022-12-18T06:07:27;3.50;;;3.20;;
30505;SDS011;17292;51.600;4.994;2022-12-18T06:09:53;3.53;;;3.10;;
30505;SDS011;17292;51.600;4.994;2022-12-18T06:12:20;3.38;;;3.10;;
30505;SDS011;17292;51.600;4.994;2022-12-18T06:14:46;3.78;;;3.03;;
30505;SDS011;17292;51.600;4.994;2022-12-18T06:17:12;3.33;;;3.03;;
30505;SDS011;17292;51.600;4.994;2022-12-18T06:19:38;3.40;;;3.10;;
30505;SDS011;17292;51.600;4.994;2022-12-18T06:22:05;4.25;;;3.85;;
30505;SDS011;17292;51.600;4.994;2022-12-18T06:24:31;4.28;;;3.40;;
30505;SDS011;17292;51.600;4.994;2022-12-18T06:26:58;3.75;;;3.45;;
30505;SDS011;17292;51.600;4.994;2022-12-18T06:29:24;4.95;;;3.50;;
30505;SDS011;17292;51.600;4.994;2022-12-18T06:31:50;3.60;;;3.30;;
30505;SDS011;17292;51.600;4.994;2022-12-18T06:34:16;3.72;;;3.20;;
30505;SDS011;17292;51.600;4.994;2022-12-18T06:36:42;3.63;;;3.33;;
30505;SDS011;17292;51.600;4.994;2022-12-18T06:39:09;3.50;;;3.08;;
30505;SDS011;17292;51.600;4.994;2022-12-18T06:41:35;3.80;;;3.50;;
30505;SDS011;17292;51.600;4.994;2022-12-18T06:44:01;3.40;;;3.10;;
30505;SDS011;17292;51.600;4.994;2022-12-18T06:46:28;3.15;;;2.92;;
30505;SDS011;17292;51.600;4.994;2022-12-18T06:48:54;3.53;;;3.22;;
30505;SDS011;17292;51.600;4.994;2022-12-18T06:51:21;3.83;;;3.53;;
30505;SDS011;17292;51.600;4.994;2022-12-18T06:53:47;3.42;;;3.13;;
30505;SDS011;17292;51.600;4.994;2022-12-18T06:56:13;3.70;;;3.00;;
30505;SDS011;17292;51.600;4.994;2022-12-18T06:58:40;4.75;;;3.28;;
30505;SDS011;17292;51.600;4.994;2022-12-18T07:01:07;3.50;;;3.20;;
30505;SDS011;17292;51.600;4.994;2022-12-18T07:03:35;3.97;;;3.60;;
30505;SDS011;17292;51.600;4.994;2022-12-18T07:06:01;3.70;;;3.30;;
30505;SDS011;17292;51.600;4.994;2022-12-18T07:08:28;3.15;;;2.95;;
30505;SDS011;17292;51.600;4.994;2022-12-18T07:10:54;3.30;;;3.10;;
30505;SDS011;17292;51.600;4.994;2022-12-18T07:13:20;3.55;;;3.17;;
30505;SDS011;17292;51.600;4.994;2022-12-18T07:15:47;3.67;;;3.33;;
30505;SDS011;17292;51.600;4.994;2022-12-18T07:18:13;3.83;;;3.38;;
30505;SDS011;17292;51.600;4.994;2022-12-18T07:20:39;3.38;;;3.08;;
30505;SDS011;17292;51.600;4.994;2022-12-18T07:23:05;3.10;;;2.90;;
30505;SDS011;17292;51.600;4.994;2022-12-18T07:25:35;3.22;;;2.92;;
30505;SDS011;17292;51.600;4.994;2022-12-18T07:28:02;3.40;;;3.10;;
30505;SDS011;17292;51.600;4.994;2022-12-18T07:30:28;3.50;;;3.20;;
30505;SDS011;17292;51.600;4.994;2022-12-18T07:32:54;3.53;;;3.22;;
30505;SDS011;17292;51.600;4.994;2022-12-18T07:35:21;3.47;;;3.17;;
30505;SDS011;17292;51.600;4.994;2022-12-18T07:37:47;3.58;;;3.28;;
30505;SDS011;17292;51.600;4.994;2022-12-18T07:40:13;3.53;;;3.22;;
30505;SDS011;17292;51.600;4.994;2022-12-18T07:42:39;3.15;;;2.95;;
30505;SDS011;17292;51.600;4.994;2022-12-18T07:45:06;3.45;;;3.15;;
30505;SDS011;17292;51.600;4.994;2022-12-18T07:47:35;3.35;;;3.05;;
30505;SDS011;17292;51.600;4.994;2022-12-18T07:50:02;3.33;;;2.97;;
30505;SDS011;17292;51.600;4.994;2022-12-18T07:52:29;3.17;;;2.97;;
30505;SDS011;17292;51.600;4.994;2022-12-18T07:54:55;3.63;;;3.33;;
30505;SDS011;17292;51.600;4.994;2022-12-18T07:57:21;3.33;;;3.03;;
30505;SDS011;17292;51.600;4.994;2022-12-18T07:59:48;2.83;;;2.63;;
30505;SDS011;17292;51.600;4.994;2022-12-18T08:02:14;3.60;;;3.03;;
30505;SDS011;17292;51.600;4.994;2022-12-18T08:04:40;2.80;;;2.60;;
30505;SDS011;17292;51.600;4.994;2022-12-18T08:07:06;3.55;;;3.25;;
30505;SDS011;17292;51.600;4.994;2022-12-18T08:09:32;3.38;;;3.08;;
30505;SDS011;17292;51.600;4.994;2022-12-18T08:11:59;3.17;;;2.88;;
30505;SDS011;17292;51.600;4.994;2022-12-18T08:14:25;4.00;;;3.20;;
30505;SDS011;17292;51.600;4.994;2022-12-18T08:17:03;3.40;;;3.10;;
30505;SDS011;17292;51.600;4.994;2022-12-18T08:19:29;4.00;;;3.30;;
30505;SDS011;17292;51.600;4.994;2022-12-18T08:21:56;3.60;;;3.30;;
30505;SDS011;17292;51.600;4.994;2022-12-18T08:24:22;3.72;;;3.10;;
30505;SDS011;17292;51.600;4.994;2022-12-18T08:26:48;3.40;;;3.10;;
30505;SDS011;17292;51.600;4.994;2022-12-18T08:29:15;3.03;;;2.83;;
30505;SDS011;17292;51.600;4.994;2022-12-18T08:31:41;4.43;;;3.38;;
30505;SDS011;17292;51.600;4.994;2022-12-18T08:34:23;3.20;;;2.90;;
30505;SDS011;17292;51.600;4.994;2022-12-18T08:36:50;3.17;;;2.88;;
30505;SDS011;17292;51.600;4.994;2022-12-18T08:39:17;3.88;;;3.47;;
30505;SDS011;17292;51.600;4.994;2022-12-18T08:41:43;3.30;;;3.00;;
30505;SDS011;17292;51.600;4.994;2022-12-18T08:44:29;3.47;;;3.17;;
30505;SDS011;17292;51.600;4.994;2022-12-18T08:47:05;3.15;;;2.88;;
30505;SDS011;17292;51.600;4.994;2022-12-18T08:49:31;3.33;;;3.08;;
30505;SDS011;17292;51.600;4.994;2022-12-18T08:51:57;2.90;;;2.70;;
30505;SDS011;17292;51.600;4.994;2022-12-18T08:54:24;3.10;;;2.90;;
30505;SDS011;17292;51.600;4.994;2022-12-18T08:56:51;3.20;;;2.90;;
30505;SDS011;17292;51.600;4.994;2022-12-18T08:59:29;3.47;;;3.20;;
30505;SDS011;17292;51.600;4.994;2022-12-18T09:01:59;3.33;;;3.03;;
30505;SDS011;17292;51.600;4.994;2022-12-18T09:04:25;3.40;;;3.10;;
30505;SDS011;17292;51.600;4.994;2022-12-18T09:06:54;3.30;;;3.00;;
30505;SDS011;17292;51.600;4.994;2022-12-18T09:09:20;3.30;;;3.05;;
30505;SDS011;17292;51.600;4.994;2022-12-18T09:11:46;3.47;;;3.15;;
30505;SDS011;17292;51.600;4.994;2022-12-18T09:14:13;3.42;;;3.13;;
30505;SDS011;17292;51.600;4.994;2022-12-18T09:16:39;2.85;;;2.65;;
30505;SDS011;17292;51.600;4.994;2022-12-18T09:19:05;3.70;;;3.22;;
30505;SDS011;17292;51.600;4.994;2022-12-18T09:21:33;3.55;;;3.25;;
30505;SDS011;17292;51.600;4.994;2022-12-18T09:24:18;3.65;;;3.30;;
30505;SDS011;17292;51.600;4.994;2022-12-18T09:26:44;3.50;;;3.20;;
30505;SDS011;17292;51.600;4.994;2022-12-18T09:29:10;3.67;;;3.35;;
30505;SDS011;17292;51.600;4.994;2022-12-18T09:31:37;3.05;;;2.85;;
30505;SDS011;17292;51.600;4.994;2022-12-18T09:34:04;3.50;;;3.20;;
30505;SDS011;17292;51.600;4.994;2022-12-18T09:36:31;3.20;;;2.90;;
30505;SDS011;17292;51.600;4.994;2022-12-18T09:38:57;3.28;;;3.00;;
30505;SDS011;17292;51.600;4.994;2022-12-18T09:43:51;3.17;;;2.90;;
30505;SDS011;17292;51.600;4.994;2022-12-18T09:46:29;3.13;;;2.92;;
30505;SDS011;17292;51.600;4.994;2022-12-18T09:48:59;4.20;;;3.20;;
30505;SDS011;17292;51.600;4.994;2022-12-18T09:51:30;3.40;;;3.10;;
30505;SDS011;17292;51.600;4.994;2022-12-18T09:54:00;3.28;;;3.08;;
30505;SDS011;17292;51.600;4.994;2022-12-18T09:56:28;2.88;;;2.67;;
30505;SDS011;17292;51.600;4.994;2022-12-18T09:58:58;3.42;;;2.83;;
30505;SDS011;17292;51.600;4.994;2022-12-18T10:01:25;3.35;;;3.05;;
30505;SDS011;17292;51.600;4.994;2022-12-18T10:03:52;3.38;;;3.08;;
30505;SDS011;17292;51.600;4.994;2022-12-18T10:06:27;3.45;;;2.92;;
30505;SDS011;17292;51.600;4.994;2022-12-18T10:09:06;3.55;;;3.25;;
30505;SDS011;17292;51.600;4.994;2022-12-18T10:27:21;3.50;;;3.20;;
30505;SDS011;17292;51.600;4.994;2022-12-18T10:30:13;3.03;;;2.80;;
30505;SDS011;17292;51.600;4.994;2022-12-18T10:32:40;3.33;;;3.00;;
30505;SDS011;17292;51.600;4.994;2022-12-18T10:35:16;3.20;;;2.90;;
30505;SDS011;17292;51.600;4.994;2022-12-18T10:38:00;3.45;;;3.15;;
30505;SDS011;17292;51.600;4.994;2022-12-18T10:43:11;3.13;;;2.83;;
30505;SDS011;17292;51.600;4.994;2022-12-18T10:45:38;3.03;;;2.83;;
30505;SDS011;17292;51.600;4.994;2022-12-18T10:48:04;3.17;;;2.83;;
30505;SDS011;17292;51.600;4.994;2022-12-18T10:50:43;4.88;;;3.10;;
30505;SDS011;17292;51.600;4.994;2022-12-18T10:53:13;3.03;;;2.83;;
30505;SDS011;17292;51.600;4.994;2022-12-18T10:55:44;3.42;;;3.13;;
30505;SDS011;17292;51.600;4.994;2022-12-18T11:01:12;3.65;;;3.10;;
30505;SDS011;17292;51.600;4.994;2022-12-18T11:03:37;2.88;;;2.67;;
30505;SDS011;17292;51.600;4.994;2022-12-18T11:06:18;3.03;;;2.83;;
30505;SDS011;17292;51.600;4.994;2022-12-18T11:09:18;3.10;;;2.90;;
30505;SDS011;17292;51.600;4.994;2022-12-18T11:11:31;2.92;;;2.72;;
30505;SDS011;17292;51.600;4.994;2022-12-18T11:16:25;2.95;;;2.75;;
30505;SDS011;17292;51.600;4.994;2022-12-18T11:18:51;2.85;;;2.65;;
30505;SDS011;17292;51.600;4.994;2022-12-18T11:21:18;2.70;;;2.50;;
30505;SDS011;17292;51.600;4.994;2022-12-18T11:23:46;3.10;;;2.88;;
30505;SDS011;17292;51.600;4.994;2022-12-18T11:26:13;3.20;;;2.92;;
30505;SDS011;17292;51.600;4.994;2022-12-18T11:31:25;3.75;;;3.00;;
30505;SDS011;17292;51.600;4.994;2022-12-18T11:38:51;3.30;;;3.00;;
30505;SDS011;17292;51.600;4.994;2022-12-18T11:41:28;3.05;;;2.75;;
30505;SDS011;17292;51.600;4.994;2022-12-18T11:44:32;2.88;;;2.65;;
30505;SDS011;17292;51.600;4.994;2022-12-18T11:47:03;2.80;;;2.60;;
30505;SDS011;17292;51.600;4.994;2022-12-18T11:49:34;3.03;;;2.83;;
30505;SDS011;17292;51.600;4.994;2022-12-18T11:54:30;3.40;;;3.10;;
30505;SDS011;17292;51.600;4.994;2022-12-18T12:07:16;3.17;;;2.97;;
30505;SDS011;17292;51.600;4.994;2022-12-18T12:27:51;3.15;;;2.70;;
30505;SDS011;17292;51.600;4.994;2022-12-18T12:35:44;3.17;;;2.85;;
30505;SDS011;17292;51.600;4.994;2022-12-18T12:38:16;2.80;;;2.60;;
30505;SDS011;17292;51.600;4.994;2022-12-18T12:40:49;3.30;;;2.83;;
30505;SDS011;17292;51.600;4.994;2022-12-18T12:46:05;3.40;;;3.15;;
30505;SDS011;17292;51.600;4.994;2022-12-18T12:51:21;3.30;;;3.00;;
30505;SDS011;17292;51.600;4.994;2022-12-18T12:53:48;3.42;;;3.20;;
30505;SDS011;17292;51.600;4.994;2022-12-18T12:56:16;3.00;;;2.70;;
30505;SDS011;17292;51.600;4.994;2022-12-18T13:06:59;3.13;;;2.90;;
30505;SDS011;17292;51.600;4.994;2022-12-18T13:09:33;2.90;;;2.70;;
30505;SDS011;17292;51.600;4.994;2022-12-18T13:12:04;3.25;;;2.95;;
30505;SDS011;17292;51.600;4.994;2022-12-18T13:14:49;3.88;;;2.70;;
30505;SDS011;17292;51.600;4.994;2022-12-18T13:19:50;3.58;;;3.13;;
30505;SDS011;17292;51.600;4.994;2022-12-18T13:22:29;2.55;;;2.35;;
30505;SDS011;17292;51.600;4.994;2022-12-18T13:24:56;2.75;;;2.38;;
30505;SDS011;17292;51.600;4.994;2022-12-18T13:30:41;3.38;;;3.08;;
30505;SDS011;17292;51.600;4.994;2022-12-18T13:33:36;3.05;;;2.85;;
30505;SDS011;17292;51.600;4.994;2022-12-18T13:38:36;2.50;;;2.33;;
30505;SDS011;17292;51.600;4.994;2022-12-18T13:43:48;2.70;;;2.50;;
30505;SDS011;17292;51.600;4.994;2022-12-18T13:48:52;4.32;;;3.03;;
30505;SDS011;17292;51.600;4.994;2022-12-18T13:51:19;3.10;;;2.80;;
30505;SDS011;17292;51.600;4.994;2022-12-18T13:53:48;3.30;;;3.00;;
30505;SDS011;17292;51.600;4.994;2022-12-18T13:56:16;3.30;;;3.00;;
30505;SDS011;17292;51.600;4.994;2022-12-18T13:58:42;2.63;;;2.45;;
30505;SDS011;17292;51.600;4.994;2022-12-18T14:01:42;2.72;;;2.53;;
30505;SDS011;17292;51.600;4.994;2022-12-18T14:06:27;2.83;;;2.63;;
30505;SDS011;17292;51.600;4.994;2022-12-18T14:08:53;2.80;;;2.60;;
30505;SDS011;17292;51.600;4.994;2022-12-18T14:11:20;3.20;;;2.90;;
30505;SDS011;17292;51.600;4.994;2022-12-18T14:13:48;3.15;;;2.75;;
30505;SDS011;17292;51.600;4.994;2022-12-18T14:16:15;3.08;;;2.80;;
30505;SDS011;17292;51.600;4.994;2022-12-18T14:21:19;3.00;;;2.65;;
30505;SDS011;17292;51.600;4.994;2022-12-18T14:23:46;2.80;;;2.60;;
30505;SDS011;17292;51.600;4.994;2022-12-18T14:26:23;3.03;;;2.58;;
30505;SDS011;17292;51.600;4.994;2022-12-18T14:28:50;2.97;;;2.67;;
30505;SDS011;17292;51.600;4.994;2022-12-18T14:31:20;2.88;;;2.67;;
30505;SDS011;17292;51.600;4.994;2022-12-18T14:33:46;2.70;;;2.50;;
30505;SDS011;17292;51.600;4.994;2022-12-18T14:36:16;2.42;;;2.22;;
30505;SDS011;17292;51.600;4.994;2022-12-18T14:38:43;3.10;;;2.80;;
30505;SDS011;17292;51.600;4.994;2022-12-18T14:41:14;2.97;;;2.67;;
30505;SDS011;17292;51.600;4.994;2022-12-18T14:43:41;2.67;;;2.47;;
30505;SDS011;17292;51.600;4.994;2022-12-18T14:48:52;2.70;;;2.50;;
30505;SDS011;17292;51.600;4.994;2022-12-18T14:51:20;2.67;;;2.47;;
30505;SDS011;17292;51.600;4.994;2022-12-18T14:53:47;2.78;;;2.58;;
30505;SDS011;17292;51.600;4.994;2022-12-18T14:58:47;2.90;;;2.70;;
30505;SDS011;17292;51.600;4.994;2022-12-18T15:01:18;2.85;;;2.65;;
30505;SDS011;17292;51.600;4.994;2022-12-18T15:03:44;3.08;;;2.83;;
30505;SDS011;17292;51.600;4.994;2022-12-18T15:06:27;2.97;;;2.78;;
30505;SDS011;17292;51.600;4.994;2022-12-18T15:08:54;2.30;;;2.20;;
30505;SDS011;17292;51.600;4.994;2022-12-18T15:11:28;3.08;;;2.78;;
30505;SDS011;17292;51.600;4.994;2022-12-18T15:13:57;3.50;;;2.85;;
30505;SDS011;17292;51.600;4.994;2022-12-18T15:16:24;2.50;;;2.30;;
30505;SDS011;17292;51.600;4.994;2022-12-18T15:18:50;2.95;;;2.75;;
30505;SDS011;17292;51.600;4.994;2022-12-18T15:21:18;2.92;;;2.60;;
30505;SDS011;17292;51.600;4.994;2022-12-18T15:23:48;2.80;;;2.60;;
30505;SDS011;17292;51.600;4.994;2022-12-18T15:26:16;2.67;;;2.53;;
30505;SDS011;17292;51.600;4.994;2022-12-18T15:33:37;2.97;;;2.78;;
30505;SDS011;17292;51.600;4.994;2022-12-18T15:36:04;3.13;;;2.83;;
30505;SDS011;17292;51.600;4.994;2022-12-18T15:38:31;2.70;;;2.50;;
30505;SDS011;17292;51.600;4.994;2022-12-18T15:40:57;3.15;;;2.85;;
30505;SDS011;17292;51.600;4.994;2022-12-18T15:43:24;3.00;;;2.80;;
30505;SDS011;17292;51.600;4.994;2022-12-18T15:46:17;3.55;;;2.80;;
30505;SDS011;17292;51.600;4.994;2022-12-18T15:53:38;2.83;;;2.60;;
30505;SDS011;17292;51.600;4.994;2022-12-18T15:56:07;2.83;;;2.63;;
30505;SDS011;17292;51.600;4.994;2022-12-18T15:58:53;2.95;;;2.67;;
30505;SDS011;17292;51.600;4.994;2022-12-18T16:01:20;2.65;;;2.45;;
30505;SDS011;17292;51.600;4.994;2022-12-18T16:03:46;2.60;;;2.40;;
30505;SDS011;17292;51.600;4.994;2022-12-18T16:06:12;2.60;;;2.40;;
30505;SDS011;17292;51.600;4.994;2022-12-18T16:08:39;2.75;;;2.55;;
30505;SDS011;17292;51.600;4.994;2022-12-18T16:11:05;2.70;;;2.50;;
30505;SDS011;17292;51.600;4.994;2022-12-18T16:13:31;2.90;;;2.70;;
30505;SDS011;17292;51.600;4.994;2022-12-18T16:15:57;2.75;;;2.55;;
30505;SDS011;17292;51.600;4.994;2022-12-18T16:18:23;2.95;;;2.75;;
30505;SDS011;17292;51.600;4.994;2022-12-18T16:20:50;2.75;;;2.55;;
30505;SDS011;17292;51.600;4.994;2022-12-18T16:23:16;2.90;;;2.70;;
30505;SDS011;17292;51.600;4.994;2022-12-18T16:25:42;2.60;;;2.40;;
30505;SDS011;17292;51.600;4.994;2022-12-18T16:28:09;2.75;;;2.55;;
30505;SDS011;17292;51.600;4.994;2022-12-18T16:30:35;2.97;;;2.78;;
30505;SDS011;17292;51.600;4.994;2022-12-18T16:33:01;2.85;;;2.65;;
30505;SDS011;17292;51.600;4.994;2022-12-18T16:35:27;3.80;;;2.60;;
30505;SDS011;17292;51.600;4.994;2022-12-18T16:37:54;2.83;;;2.63;;
30505;SDS011;17292;51.600;4.994;2022-12-18T16:40:20;2.90;;;2.70;;
30505;SDS011;17292;51.600;4.994;2022-12-18T16:42:46;3.13;;;2.85;;
30505;SDS011;17292;51.600;4.994;2022-12-18T16:45:14;2.90;;;2.70;;
30505;SDS011;17292;51.600;4.994;2022-12-18T16:47:40;2.80;;;2.60;;
30505;SDS011;17292;51.600;4.994;2022-12-18T16:50:07;2.70;;;2.50;;
30505;SDS011;17292;51.600;4.994;2022-12-18T16:52:34;2.78;;;2.58;;
30505;SDS011;17292;51.600;4.994;2022-12-18T16:55:00;3.13;;;2.58;;
30505;SDS011;17292;51.600;4.994;2022-12-18T16:57:27;2.60;;;2.40;;
30505;SDS011;17292;51.600;4.994;2022-12-18T16:59:53;2.25;;;2.08;;
30505;SDS011;17292;51.600;4.994;2022-12-18T17:02:23;3.15;;;2.50;;
30505;SDS011;17292;51.600;4.994;2022-12-18T17:04:54;2.60;;;2.40;;
30505;SDS011;17292;51.600;4.994;2022-12-18T17:07:20;2.97;;;2.78;;
30505;SDS011;17292;51.600;4.994;2022-12-18T17:09:47;2.90;;;2.70;;
30505;SDS011;17292;51.600;4.994;2022-12-18T17:12:14;2.85;;;2.65;;
30505;SDS011;17292;51.600;4.994;2022-12-18T17:14:41;2.80;;;2.60;;
30505;SDS011;17292;51.600;4.994;2022-12-18T17:17:07;2.63;;;2.42;;
30505;SDS011;17292;51.600;4.994;2022-12-18T17:19:33;2.70;;;2.50;;
30505;SDS011;17292;51.600;4.994;2022-12-18T17:21:59;2.90;;;2.70;;
30505;SDS011;17292;51.600;4.994;2022-12-18T17:24:25;2.78;;;2.58;;